sensor_id;sensor_type;location;lat;lon;timestamp;P1;durP1;ratioP1;P2;durP2;ratioP2
6135;SDS011;24008;42.664;23.372;2023-03-05T00:00:26;40.57;;;21.30;;
6135;SDS011;24008;42.664;23.372;2023-03-05T00:02:53;39.80;;;21.83;;
6135;SDS011;24008;42.664;23.372;2023-03-05T00:05:20;39.53;;;22.17;;
6135;SDS011;24008;42.664;23.372;2023-03-05T00:07:47;41.10;;;22.07;;
6135;SDS011;24008;42.664;23.372;2023-03-05T00:10:14;39.70;;;21.83;;
6135;SDS011;24008;42.664;23.372;2023-03-05T00:12:41;39.47;;;21.53;;
6135;SDS011;24008;42.664;23.372;2023-03-05T00:15:09;44.37;;;21.90;;
6135;SDS011;24008;42.664;23.372;2023-03-05T00:17:37;41.20;;;22.53;;
6135;SDS011;24008;42.664;23.372;2023-03-05T00:20:04;40.37;;;20.97;;
6135;SDS011;24008;42.664;23.372;2023-03-05T00:22:32;35.17;;;20.30;;
6135;SDS011;24008;42.664;23.372;2023-03-05T00:24:59;39.30;;;21.57;;
6135;SDS011;24008;42.664;23.372;2023-03-05T00:27:27;44.17;;;21.73;;
6135;SDS011;24008;42.664;23.372;2023-03-05T00:29:53;38.50;;;20.70;;
6135;SDS011;24008;42.664;23.372;2023-03-05T00:32:21;37.20;;;21.10;;
6135;SDS011;24008;42.664;23.372;2023-03-05T00:34:48;39.73;;;21.13;;
6135;SDS011;24008;42.664;23.372;2023-03-05T00:37:15;41.37;;;21.00;;
6135;SDS011;24008;42.664;23.372;2023-03-05T00:39:42;38.17;;;20.93;;
6135;SDS011;24008;42.664;23.372;2023-03-05T00:42:09;38.70;;;20.63;;
6135;SDS011;24008;42.664;23.372;2023-03-05T00:44:35;37.17;;;20.80;;
6135;SDS011;24008;42.664;23.372;2023-03-05T00:47:02;38.90;;;22.27;;
6135;SDS011;24008;42.664;23.372;2023-03-05T00:49:31;38.73;;;20.70;;
6135;SDS011;24008;42.664;23.372;2023-03-05T00:51:58;36.50;;;19.90;;
6135;SDS011;24008;42.664;23.372;2023-03-05T00:54:25;36.17;;;21.03;;
6135;SDS011;24008;42.664;23.372;2023-03-05T00:56:51;36.13;;;20.03;;
6135;SDS011;24008;42.664;23.372;2023-03-05T00:59:18;37.67;;;20.70;;
6135;SDS011;24008;42.664;23.372;2023-03-05T01:01:45;34.80;;;20.27;;
6135;SDS011;24008;42.664;23.372;2023-03-05T01:04:12;35.53;;;20.30;;
6135;SDS011;24008;42.664;23.372;2023-03-05T01:06:40;36.97;;;19.67;;
6135;SDS011;24008;42.664;23.372;2023-03-05T01:09:08;35.23;;;19.07;;
6135;SDS011;24008;42.664;23.372;2023-03-05T01:11:36;34.83;;;19.67;;
6135;SDS011;24008;42.664;23.372;2023-03-05T01:14:02;36.37;;;20.37;;
6135;SDS011;24008;42.664;23.372;2023-03-05T01:16:29;36.13;;;19.00;;
6135;SDS011;24008;42.664;23.372;2023-03-05T01:18:56;37.90;;;20.13;;
6135;SDS011;24008;42.664;23.372;2023-03-05T01:21:23;36.20;;;18.43;;
6135;SDS011;24008;42.664;23.372;2023-03-05T01:23:51;33.97;;;18.83;;
6135;SDS011;24008;42.664;23.372;2023-03-05T01:26:18;39.80;;;19.47;;
6135;SDS011;24008;42.664;23.372;2023-03-05T01:28:45;37.00;;;19.83;;
6135;SDS011;24008;42.664;23.372;2023-03-05T01:31:12;32.90;;;18.63;;
6135;SDS011;24008;42.664;23.372;2023-03-05T01:33:39;35.30;;;18.50;;
6135;SDS011;24008;42.664;23.372;2023-03-05T01:36:06;32.97;;;19.37;;
6135;SDS011;24008;42.664;23.372;2023-03-05T01:38:36;36.90;;;19.97;;
6135;SDS011;24008;42.664;23.372;2023-03-05T01:41:04;35.73;;;19.07;;
6135;SDS011;24008;42.664;23.372;2023-03-05T01:43:32;33.37;;;18.77;;
6135;SDS011;24008;42.664;23.372;2023-03-05T01:46:20;36.73;;;19.10;;
6135;SDS011;24008;42.664;23.372;2023-03-05T01:49:13;32.67;;;18.93;;
6135;SDS011;24008;42.664;23.372;2023-03-05T01:51:47;36.03;;;18.50;;
6135;SDS011;24008;42.664;23.372;2023-03-05T01:54:21;35.10;;;18.47;;
6135;SDS011;24008;42.664;23.372;2023-03-05T01:56:53;38.13;;;18.80;;
6135;SDS011;24008;42.664;23.372;2023-03-05T01:59:24;38.50;;;18.23;;
6135;SDS011;24008;42.664;23.372;2023-03-05T02:01:53;33.77;;;18.27;;
6135;SDS011;24008;42.664;23.372;2023-03-05T02:04:25;39.23;;;19.27;;
6135;SDS011;24008;42.664;23.372;2023-03-05T02:06:56;35.73;;;17.57;;
6135;SDS011;24008;42.664;23.372;2023-03-05T02:09:25;31.00;;;18.07;;
6135;SDS011;24008;42.664;23.372;2023-03-05T02:11:55;31.87;;;17.97;;
6135;SDS011;24008;42.664;23.372;2023-03-05T02:14:22;33.37;;;18.07;;
6135;SDS011;24008;42.664;23.372;2023-03-05T02:16:50;29.83;;;17.50;;
6135;SDS011;24008;42.664;23.372;2023-03-05T02:19:17;32.87;;;18.30;;
6135;SDS011;24008;42.664;23.372;2023-03-05T02:21:46;31.37;;;17.90;;
6135;SDS011;24008;42.664;23.372;2023-03-05T02:24:14;28.90;;;16.93;;
6135;SDS011;24008;42.664;23.372;2023-03-05T02:26:43;33.37;;;17.40;;
6135;SDS011;24008;42.664;23.372;2023-03-05T02:29:11;31.00;;;17.47;;
6135;SDS011;24008;42.664;23.372;2023-03-05T02:31:42;30.43;;;17.13;;
6135;SDS011;24008;42.664;23.372;2023-03-05T02:34:09;33.67;;;18.10;;
6135;SDS011;24008;42.664;23.372;2023-03-05T02:36:36;30.93;;;16.53;;
6135;SDS011;24008;42.664;23.372;2023-03-05T02:39:04;33.83;;;17.90;;
6135;SDS011;24008;42.664;23.372;2023-03-05T02:41:32;36.00;;;17.43;;
6135;SDS011;24008;42.664;23.372;2023-03-05T02:43:59;35.13;;;18.67;;
6135;SDS011;24008;42.664;23.372;2023-03-05T02:46:26;34.73;;;17.30;;
6135;SDS011;24008;42.664;23.372;2023-03-05T02:48:53;33.97;;;18.37;;
6135;SDS011;24008;42.664;23.372;2023-03-05T02:51:20;34.50;;;18.90;;
6135;SDS011;24008;42.664;23.372;2023-03-05T02:53:46;36.57;;;18.63;;
6135;SDS011;24008;42.664;23.372;2023-03-05T02:56:15;35.03;;;18.27;;
6135;SDS011;24008;42.664;23.372;2023-03-05T02:58:41;33.40;;;18.53;;
6135;SDS011;24008;42.664;23.372;2023-03-05T03:01:08;32.13;;;18.23;;
6135;SDS011;24008;42.664;23.372;2023-03-05T03:03:35;33.13;;;18.50;;
6135;SDS011;24008;42.664;23.372;2023-03-05T03:06:02;33.60;;;18.57;;
6135;SDS011;24008;42.664;23.372;2023-03-05T03:08:30;36.47;;;19.67;;
6135;SDS011;24008;42.664;23.372;2023-03-05T03:11:02;34.10;;;19.03;;
6135;SDS011;24008;42.664;23.372;2023-03-05T03:13:31;38.20;;;20.07;;
6135;SDS011;24008;42.664;23.372;2023-03-05T03:16:01;35.87;;;20.00;;
6135;SDS011;24008;42.664;23.372;2023-03-05T03:18:29;38.87;;;20.07;;
6135;SDS011;24008;42.664;23.372;2023-03-05T03:20:56;40.17;;;19.77;;
6135;SDS011;24008;42.664;23.372;2023-03-05T03:23:23;42.03;;;20.67;;
6135;SDS011;24008;42.664;23.372;2023-03-05T03:25:50;39.90;;;19.83;;
6135;SDS011;24008;42.664;23.372;2023-03-05T03:28:17;41.57;;;21.77;;
6135;SDS011;24008;42.664;23.372;2023-03-05T03:30:45;39.17;;;21.33;;
6135;SDS011;24008;42.664;23.372;2023-03-05T03:33:12;40.37;;;21.00;;
6135;SDS011;24008;42.664;23.372;2023-03-05T03:35:39;37.27;;;19.73;;
6135;SDS011;24008;42.664;23.372;2023-03-05T03:38:05;38.90;;;20.60;;
6135;SDS011;24008;42.664;23.372;2023-03-05T03:40:32;39.10;;;21.53;;
6135;SDS011;24008;42.664;23.372;2023-03-05T03:42:59;41.40;;;21.13;;
6135;SDS011;24008;42.664;23.372;2023-03-05T03:45:26;39.07;;;20.20;;
6135;SDS011;24008;42.664;23.372;2023-03-05T03:47:54;39.43;;;21.60;;
6135;SDS011;24008;42.664;23.372;2023-03-05T03:50:21;37.87;;;20.77;;
6135;SDS011;24008;42.664;23.372;2023-03-05T03:52:49;40.37;;;21.00;;
6135;SDS011;24008;42.664;23.372;2023-03-05T03:55:16;37.73;;;21.10;;
6135;SDS011;24008;42.664;23.372;2023-03-05T03:57:42;35.77;;;18.90;;
6135;SDS011;24008;42.664;23.372;2023-03-05T04:00:10;40.60;;;20.50;;
6135;SDS011;24008;42.664;23.372;2023-03-05T04:02:37;40.13;;;21.67;;
6135;SDS011;24008;42.664;23.372;2023-03-05T04:05:06;39.13;;;20.63;;
6135;SDS011;24008;42.664;23.372;2023-03-05T04:07:34;41.20;;;22.03;;
6135;SDS011;24008;42.664;23.372;2023-03-05T04:10:01;38.57;;;19.93;;
6135;SDS011;24008;42.664;23.372;2023-03-05T04:12:27;36.67;;;19.37;;
6135;SDS011;24008;42.664;23.372;2023-03-05T04:14:54;38.67;;;21.23;;
6135;SDS011;24008;42.664;23.372;2023-03-05T04:17:21;39.33;;;21.30;;
6135;SDS011;24008;42.664;23.372;2023-03-05T04:19:48;41.33;;;21.43;;
6135;SDS011;24008;42.664;23.372;2023-03-05T04:22:16;39.43;;;21.10;;
6135;SDS011;24008;42.664;23.372;2023-03-05T04:24:43;43.07;;;22.13;;
6135;SDS011;24008;42.664;23.372;2023-03-05T04:27:10;44.67;;;22.50;;
6135;SDS011;24008;42.664;23.372;2023-03-05T04:29:37;44.90;;;22.37;;
6135;SDS011;24008;42.664;23.372;2023-03-05T04:32:04;41.63;;;21.97;;
6135;SDS011;24008;42.664;23.372;2023-03-05T04:34:31;45.30;;;21.20;;
6135;SDS011;24008;42.664;23.372;2023-03-05T04:36:58;39.17;;;20.97;;
6135;SDS011;24008;42.664;23.372;2023-03-05T04:39:26;38.43;;;19.27;;
6135;SDS011;24008;42.664;23.372;2023-03-05T04:41:53;38.40;;;19.27;;
6135;SDS011;24008;42.664;23.372;2023-03-05T04:44:20;37.97;;;19.20;;
6135;SDS011;24008;42.664;23.372;2023-03-05T04:46:47;44.03;;;21.60;;
6135;SDS011;24008;42.664;23.372;2023-03-05T04:49:14;38.87;;;19.70;;
6135;SDS011;24008;42.664;23.372;2023-03-05T04:51:41;41.57;;;20.73;;
6135;SDS011;24008;42.664;23.372;2023-03-05T04:54:07;39.13;;;20.50;;
6135;SDS011;24008;42.664;23.372;2023-03-05T04:56:36;36.50;;;19.57;;
6135;SDS011;24008;42.664;23.372;2023-03-05T04:59:02;40.30;;;20.27;;
6135;SDS011;24008;42.664;23.372;2023-03-05T05:01:29;41.53;;;20.80;;
6135;SDS011;24008;42.664;23.372;2023-03-05T05:03:57;50.47;;;26.60;;
6135;SDS011;24008;42.664;23.372;2023-03-05T05:06:23;46.53;;;22.27;;
6135;SDS011;24008;42.664;23.372;2023-03-05T05:08:50;41.60;;;21.30;;
6135;SDS011;24008;42.664;23.372;2023-03-05T05:11:17;40.27;;;20.10;;
6135;SDS011;24008;42.664;23.372;2023-03-05T05:13:45;40.13;;;21.63;;
6135;SDS011;24008;42.664;23.372;2023-03-05T05:16:12;46.00;;;22.43;;
6135;SDS011;24008;42.664;23.372;2023-03-05T05:18:39;44.10;;;21.93;;
6135;SDS011;24008;42.664;23.372;2023-03-05T05:21:07;36.53;;;19.67;;
6135;SDS011;24008;42.664;23.372;2023-03-05T05:23:34;38.70;;;19.73;;
6135;SDS011;24008;42.664;23.372;2023-03-05T05:26:02;39.83;;;20.40;;
6135;SDS011;24008;42.664;23.372;2023-03-05T05:28:30;37.13;;;20.50;;
6135;SDS011;24008;42.664;23.372;2023-03-05T05:30:59;39.13;;;19.70;;
6135;SDS011;24008;42.664;23.372;2023-03-05T05:33:31;35.60;;;19.27;;
6135;SDS011;24008;42.664;23.372;2023-03-05T05:35:58;39.53;;;20.73;;
6135;SDS011;24008;42.664;23.372;2023-03-05T05:38:25;37.20;;;19.27;;
6135;SDS011;24008;42.664;23.372;2023-03-05T05:40:51;41.27;;;20.20;;
6135;SDS011;24008;42.664;23.372;2023-03-05T05:43:18;47.20;;;24.60;;
6135;SDS011;24008;42.664;23.372;2023-03-05T05:45:45;43.00;;;20.90;;
6135;SDS011;24008;42.664;23.372;2023-03-05T05:48:13;37.10;;;18.90;;
6135;SDS011;24008;42.664;23.372;2023-03-05T05:50:40;34.43;;;18.40;;
6135;SDS011;24008;42.664;23.372;2023-03-05T05:53:07;39.73;;;20.17;;
6135;SDS011;24008;42.664;23.372;2023-03-05T05:55:33;34.03;;;18.17;;
6135;SDS011;24008;42.664;23.372;2023-03-05T05:58:00;37.03;;;18.53;;
6135;SDS011;24008;42.664;23.372;2023-03-05T06:00:27;31.67;;;17.27;;
6135;SDS011;24008;42.664;23.372;2023-03-05T06:02:54;34.10;;;18.70;;
6135;SDS011;24008;42.664;23.372;2023-03-05T06:05:22;34.90;;;18.13;;
6135;SDS011;24008;42.664;23.372;2023-03-05T06:07:49;35.80;;;18.00;;
6135;SDS011;24008;42.664;23.372;2023-03-05T06:10:35;34.83;;;17.17;;
6135;SDS011;24008;42.664;23.372;2023-03-05T06:13:02;35.40;;;17.80;;
6135;SDS011;24008;42.664;23.372;2023-03-05T06:15:29;37.77;;;17.63;;
6135;SDS011;24008;42.664;23.372;2023-03-05T06:17:57;28.83;;;16.20;;
6135;SDS011;24008;42.664;23.372;2023-03-05T06:20:25;36.60;;;17.27;;
6135;SDS011;24008;42.664;23.372;2023-03-05T06:22:53;31.63;;;16.90;;
6135;SDS011;24008;42.664;23.372;2023-03-05T06:25:20;32.67;;;17.23;;
6135;SDS011;24008;42.664;23.372;2023-03-05T06:27:47;33.00;;;17.13;;
6135;SDS011;24008;42.664;23.372;2023-03-05T06:30:14;29.20;;;15.90;;
6135;SDS011;24008;42.664;23.372;2023-03-05T06:32:41;31.57;;;16.43;;
6135;SDS011;24008;42.664;23.372;2023-03-05T06:35:08;33.47;;;17.17;;
6135;SDS011;24008;42.664;23.372;2023-03-05T06:37:36;28.03;;;15.63;;
6135;SDS011;24008;42.664;23.372;2023-03-05T06:40:03;33.03;;;16.17;;
6135;SDS011;24008;42.664;23.372;2023-03-05T06:42:32;27.43;;;15.67;;
6135;SDS011;24008;42.664;23.372;2023-03-05T06:44:59;31.37;;;16.13;;
6135;SDS011;24008;42.664;23.372;2023-03-05T06:47:26;30.60;;;16.20;;
6135;SDS011;24008;42.664;23.372;2023-03-05T06:49:52;27.53;;;15.93;;
6135;SDS011;24008;42.664;23.372;2023-03-05T06:52:19;32.83;;;18.10;;
6135;SDS011;24008;42.664;23.372;2023-03-05T06:54:47;28.50;;;16.00;;
6135;SDS011;24008;42.664;23.372;2023-03-05T06:57:14;30.43;;;16.13;;
6135;SDS011;24008;42.664;23.372;2023-03-05T06:59:41;25.73;;;14.97;;
6135;SDS011;24008;42.664;23.372;2023-03-05T07:02:08;30.90;;;16.30;;
6135;SDS011;24008;42.664;23.372;2023-03-05T07:04:37;31.57;;;16.27;;
6135;SDS011;24008;42.664;23.372;2023-03-05T07:07:05;29.80;;;15.87;;
6135;SDS011;24008;42.664;23.372;2023-03-05T07:09:31;27.63;;;15.13;;
6135;SDS011;24008;42.664;23.372;2023-03-05T07:12:00;30.33;;;16.10;;
6135;SDS011;24008;42.664;23.372;2023-03-05T07:14:27;30.33;;;17.23;;
6135;SDS011;24008;42.664;23.372;2023-03-05T07:16:53;27.63;;;16.17;;
6135;SDS011;24008;42.664;23.372;2023-03-05T07:19:20;30.13;;;15.67;;
6135;SDS011;24008;42.664;23.372;2023-03-05T07:21:47;29.17;;;15.97;;
6135;SDS011;24008;42.664;23.372;2023-03-05T07:24:14;25.10;;;15.47;;
6135;SDS011;24008;42.664;23.372;2023-03-05T07:26:41;29.80;;;15.87;;
6135;SDS011;24008;42.664;23.372;2023-03-05T07:29:13;28.87;;;16.87;;
6135;SDS011;24008;42.664;23.372;2023-03-05T07:31:43;28.87;;;15.93;;
6135;SDS011;24008;42.664;23.372;2023-03-05T07:34:10;26.90;;;16.33;;
6135;SDS011;24008;42.664;23.372;2023-03-05T07:36:37;31.73;;;17.80;;
6135;SDS011;24008;42.664;23.372;2023-03-05T07:39:04;31.90;;;17.83;;
6135;SDS011;24008;42.664;23.372;2023-03-05T07:41:31;31.83;;;17.87;;
6135;SDS011;24008;42.664;23.372;2023-03-05T07:43:58;28.27;;;17.47;;
6135;SDS011;24008;42.664;23.372;2023-03-05T07:46:27;29.97;;;17.97;;
6135;SDS011;24008;42.664;23.372;2023-03-05T07:48:56;31.60;;;18.07;;
6135;SDS011;24008;42.664;23.372;2023-03-05T07:51:23;32.93;;;17.73;;
6135;SDS011;24008;42.664;23.372;2023-03-05T07:53:54;34.63;;;18.63;;
6135;SDS011;24008;42.664;23.372;2023-03-05T07:56:22;33.83;;;19.43;;
6135;SDS011;24008;42.664;23.372;2023-03-05T07:58:50;34.93;;;19.67;;
6135;SDS011;24008;42.664;23.372;2023-03-05T08:01:18;39.97;;;19.90;;
6135;SDS011;24008;42.664;23.372;2023-03-05T08:03:46;37.10;;;20.23;;
6135;SDS011;24008;42.664;23.372;2023-03-05T08:06:13;37.67;;;19.60;;
6135;SDS011;24008;42.664;23.372;2023-03-05T08:08:39;34.03;;;19.17;;
6135;SDS011;24008;42.664;23.372;2023-03-05T08:11:07;37.67;;;20.67;;
6135;SDS011;24008;42.664;23.372;2023-03-05T08:13:35;36.57;;;20.60;;
6135;SDS011;24008;42.664;23.372;2023-03-05T08:16:03;33.37;;;20.13;;
6135;SDS011;24008;42.664;23.372;2023-03-05T08:18:31;98.07;;;50.97;;
6135;SDS011;24008;42.664;23.372;2023-03-05T08:20:59;40.50;;;24.27;;
6135;SDS011;24008;42.664;23.372;2023-03-05T08:23:26;37.67;;;20.80;;
6135;SDS011;24008;42.664;23.372;2023-03-05T08:25:54;36.10;;;20.47;;
6135;SDS011;24008;42.664;23.372;2023-03-05T08:28:21;36.00;;;19.83;;
6135;SDS011;24008;42.664;23.372;2023-03-05T08:30:48;37.43;;;20.37;;
6135;SDS011;24008;42.664;23.372;2023-03-05T08:33:15;36.00;;;19.63;;
6135;SDS011;24008;42.664;23.372;2023-03-05T08:35:42;38.10;;;21.67;;
6135;SDS011;24008;42.664;23.372;2023-03-05T08:38:10;37.37;;;21.33;;
6135;SDS011;24008;42.664;23.372;2023-03-05T08:40:37;37.10;;;20.47;;
6135;SDS011;24008;42.664;23.372;2023-03-05T08:43:04;43.03;;;22.80;;
6135;SDS011;24008;42.664;23.372;2023-03-05T08:45:31;36.53;;;21.00;;
6135;SDS011;24008;42.664;23.372;2023-03-05T08:47:58;37.80;;;21.13;;
6135;SDS011;24008;42.664;23.372;2023-03-05T08:50:25;37.83;;;21.33;;
6135;SDS011;24008;42.664;23.372;2023-03-05T08:52:52;37.70;;;20.13;;
6135;SDS011;24008;42.664;23.372;2023-03-05T08:55:22;37.63;;;20.83;;
6135;SDS011;24008;42.664;23.372;2023-03-05T08:57:49;40.50;;;20.97;;
6135;SDS011;24008;42.664;23.372;2023-03-05T09:00:16;36.87;;;21.43;;
6135;SDS011;24008;42.664;23.372;2023-03-05T09:02:43;40.67;;;22.03;;
6135;SDS011;24008;42.664;23.372;2023-03-05T09:05:10;38.17;;;21.30;;
6135;SDS011;24008;42.664;23.372;2023-03-05T09:07:37;33.63;;;20.30;;
6135;SDS011;24008;42.664;23.372;2023-03-05T09:10:04;36.10;;;19.27;;
6135;SDS011;24008;42.664;23.372;2023-03-05T09:12:35;36.83;;;20.17;;
6135;SDS011;24008;42.664;23.372;2023-03-05T09:15:05;37.13;;;19.97;;
6135;SDS011;24008;42.664;23.372;2023-03-05T09:17:33;35.27;;;20.20;;
6135;SDS011;24008;42.664;23.372;2023-03-05T09:20:00;37.27;;;20.10;;
6135;SDS011;24008;42.664;23.372;2023-03-05T09:22:27;33.47;;;20.10;;
6135;SDS011;24008;42.664;23.372;2023-03-05T09:24:54;36.13;;;19.77;;
6135;SDS011;24008;42.664;23.372;2023-03-05T09:27:21;30.37;;;18.20;;
6135;SDS011;24008;42.664;23.372;2023-03-05T09:29:49;32.07;;;19.43;;
6135;SDS011;24008;42.664;23.372;2023-03-05T09:32:17;32.03;;;19.73;;
6135;SDS011;24008;42.664;23.372;2023-03-05T09:34:44;36.53;;;20.07;;
6135;SDS011;24008;42.664;23.372;2023-03-05T09:37:10;33.37;;;19.47;;
6135;SDS011;24008;42.664;23.372;2023-03-05T09:39:37;29.73;;;18.57;;
6135;SDS011;24008;42.664;23.372;2023-03-05T09:42:19;29.43;;;18.40;;
6135;SDS011;24008;42.664;23.372;2023-03-05T09:44:59;31.87;;;18.73;;
6135;SDS011;24008;42.664;23.372;2023-03-05T09:47:42;41.87;;;18.30;;
6135;SDS011;24008;42.664;23.372;2023-03-05T09:50:14;34.97;;;17.80;;
6135;SDS011;24008;42.664;23.372;2023-03-05T09:52:56;27.13;;;17.43;;
6135;SDS011;24008;42.664;23.372;2023-03-05T09:55:28;28.93;;;17.60;;
6135;SDS011;24008;42.664;23.372;2023-03-05T09:58:02;27.77;;;17.60;;
6135;SDS011;24008;42.664;23.372;2023-03-05T10:00:37;26.13;;;17.27;;
6135;SDS011;24008;42.664;23.372;2023-03-05T10:03:12;28.97;;;17.73;;
6135;SDS011;24008;42.664;23.372;2023-03-05T10:05:45;31.87;;;17.77;;
6135;SDS011;24008;42.664;23.372;2023-03-05T10:08:20;38.33;;;17.80;;
6135;SDS011;24008;42.664;23.372;2023-03-05T10:10:52;25.87;;;15.73;;
6135;SDS011;24008;42.664;23.372;2023-03-05T10:13:21;29.58;;;18.77;;
6135;SDS011;24008;42.664;23.372;2023-03-05T10:15:54;24.30;;;15.57;;
6135;SDS011;24008;42.664;23.372;2023-03-05T10:18:32;28.70;;;18.13;;
6135;SDS011;24008;42.664;23.372;2023-03-05T10:21:03;27.60;;;17.30;;
6135;SDS011;24008;42.664;23.372;2023-03-05T10:23:38;30.47;;;17.97;;
6135;SDS011;24008;42.664;23.372;2023-03-05T10:26:19;29.87;;;17.07;;
6135;SDS011;24008;42.664;23.372;2023-03-05T10:28:56;26.57;;;17.23;;
6135;SDS011;24008;42.664;23.372;2023-03-05T10:31:39;27.87;;;17.27;;
6135;SDS011;24008;42.664;23.372;2023-03-05T10:37:25;31.03;;;18.10;;
6135;SDS011;24008;42.664;23.372;2023-03-05T10:40:07;26.63;;;17.17;;
6135;SDS011;24008;42.664;23.372;2023-03-05T10:42:44;32.53;;;18.17;;
6135;SDS011;24008;42.664;23.372;2023-03-05T10:45:16;29.40;;;17.90;;
6135;SDS011;24008;42.664;23.372;2023-03-05T10:47:49;29.60;;;17.30;;
6135;SDS011;24008;42.664;23.372;2023-03-05T10:50:20;24.70;;;14.93;;
6135;SDS011;24008;42.664;23.372;2023-03-05T10:52:49;22.03;;;13.67;;
6135;SDS011;24008;42.664;23.372;2023-03-05T10:55:25;20.23;;;13.13;;
6135;SDS011;24008;42.664;23.372;2023-03-05T10:57:52;20.60;;;14.37;;
6135;SDS011;24008;42.664;23.372;2023-03-05T11:00:20;23.17;;;14.03;;
6135;SDS011;24008;42.664;23.372;2023-03-05T11:02:56;22.47;;;13.60;;
6135;SDS011;24008;42.664;23.372;2023-03-05T11:05:42;18.67;;;12.33;;
6135;SDS011;24008;42.664;23.372;2023-03-05T11:11:04;19.40;;;12.60;;
6135;SDS011;24008;42.664;23.372;2023-03-05T11:13:37;18.40;;;12.03;;
6135;SDS011;24008;42.664;23.372;2023-03-05T11:16:14;18.73;;;12.40;;
6135;SDS011;24008;42.664;23.372;2023-03-05T11:18:44;23.23;;;12.67;;
6135;SDS011;24008;42.664;23.372;2023-03-05T11:21:31;25.77;;;16.50;;
6135;SDS011;24008;42.664;23.372;2023-03-05T11:24:05;22.80;;;13.83;;
6135;SDS011;24008;42.664;23.372;2023-03-05T11:26:39;21.20;;;13.23;;
6135;SDS011;24008;42.664;23.372;2023-03-05T11:29:18;25.77;;;13.37;;
6135;SDS011;24008;42.664;23.372;2023-03-05T11:31:51;22.27;;;13.33;;
6135;SDS011;24008;42.664;23.372;2023-03-05T11:34:29;19.87;;;13.40;;
6135;SDS011;24008;42.664;23.372;2023-03-05T11:37:03;19.37;;;12.97;;
6135;SDS011;24008;42.664;23.372;2023-03-05T11:39:32;21.27;;;13.10;;
6135;SDS011;24008;42.664;23.372;2023-03-05T11:42:03;18.77;;;13.07;;
6135;SDS011;24008;42.664;23.372;2023-03-05T11:44:34;19.83;;;12.10;;
6135;SDS011;24008;42.664;23.372;2023-03-05T11:47:12;20.57;;;13.57;;
6135;SDS011;24008;42.664;23.372;2023-03-05T11:49:47;19.97;;;13.10;;
6135;SDS011;24008;42.664;23.372;2023-03-05T11:52:21;21.73;;;12.77;;
6135;SDS011;24008;42.664;23.372;2023-03-05T11:54:52;24.03;;;13.37;;
6135;SDS011;24008;42.664;23.372;2023-03-05T11:57:25;19.40;;;12.77;;
6135;SDS011;24008;42.664;23.372;2023-03-05T11:59:54;20.70;;;13.27;;
6135;SDS011;24008;42.664;23.372;2023-03-05T12:02:26;21.17;;;13.27;;
6135;SDS011;24008;42.664;23.372;2023-03-05T12:04:54;22.37;;;13.77;;
6135;SDS011;24008;42.664;23.372;2023-03-05T12:07:25;21.27;;;12.73;;
6135;SDS011;24008;42.664;23.372;2023-03-05T12:09:59;19.23;;;12.53;;
6135;SDS011;24008;42.664;23.372;2023-03-05T12:12:29;22.57;;;13.47;;
6135;SDS011;24008;42.664;23.372;2023-03-05T12:15:05;22.70;;;12.77;;
6135;SDS011;24008;42.664;23.372;2023-03-05T12:17:53;20.90;;;13.67;;
6135;SDS011;24008;42.664;23.372;2023-03-05T12:20:34;27.13;;;15.43;;
6135;SDS011;24008;42.664;23.372;2023-03-05T12:23:10;21.20;;;13.67;;
6135;SDS011;24008;42.664;23.372;2023-03-05T12:25:44;22.17;;;13.43;;
6135;SDS011;24008;42.664;23.372;2023-03-05T12:28:12;21.97;;;13.20;;
6135;SDS011;24008;42.664;23.372;2023-03-05T12:30:54;20.67;;;13.30;;
6135;SDS011;24008;42.664;23.372;2023-03-05T12:33:31;16.13;;;11.47;;
6135;SDS011;24008;42.664;23.372;2023-03-05T12:42:05;20.77;;;13.63;;
6135;SDS011;24008;42.664;23.372;2023-03-05T12:45:23;19.87;;;12.20;;
6135;SDS011;24008;42.664;23.372;2023-03-05T12:51:10;19.30;;;12.53;;
6135;SDS011;24008;42.664;23.372;2023-03-05T12:53:40;22.60;;;11.83;;
6135;SDS011;24008;42.664;23.372;2023-03-05T12:56:12;18.80;;;12.43;;
6135;SDS011;24008;42.664;23.372;2023-03-05T12:58:46;21.90;;;13.00;;
6135;SDS011;24008;42.664;23.372;2023-03-05T13:01:22;21.77;;;13.13;;
6135;SDS011;24008;42.664;23.372;2023-03-05T13:03:57;22.17;;;13.67;;
6135;SDS011;24008;42.664;23.372;2023-03-05T13:06:28;20.07;;;12.80;;
6135;SDS011;24008;42.664;23.372;2023-03-05T13:09:00;21.57;;;13.30;;
6135;SDS011;24008;42.664;23.372;2023-03-05T13:11:30;18.20;;;11.80;;
6135;SDS011;24008;42.664;23.372;2023-03-05T13:13:59;21.67;;;12.73;;
6135;SDS011;24008;42.664;23.372;2023-03-05T13:16:27;18.27;;;12.23;;
6135;SDS011;24008;42.664;23.372;2023-03-05T13:18:56;19.40;;;13.17;;
6135;SDS011;24008;42.664;23.372;2023-03-05T13:21:27;18.93;;;12.33;;
6135;SDS011;24008;42.664;23.372;2023-03-05T13:23:56;22.93;;;13.03;;
6135;SDS011;24008;42.664;23.372;2023-03-05T13:26:25;21.03;;;13.37;;
6135;SDS011;24008;42.664;23.372;2023-03-05T13:29:06;25.67;;;13.43;;
6135;SDS011;24008;42.664;23.372;2023-03-05T13:31:40;20.90;;;13.17;;
6135;SDS011;24008;42.664;23.372;2023-03-05T13:34:10;26.60;;;15.63;;
6135;SDS011;24008;42.664;23.372;2023-03-05T13:36:44;22.40;;;13.57;;
6135;SDS011;24008;42.664;23.372;2023-03-05T13:39:19;21.93;;;13.17;;
6135;SDS011;24008;42.664;23.372;2023-03-05T13:41:59;23.73;;;14.03;;
6135;SDS011;24008;42.664;23.372;2023-03-05T13:44:28;25.27;;;13.47;;
6135;SDS011;24008;42.664;23.372;2023-03-05T13:47:06;22.50;;;13.50;;
6135;SDS011;24008;42.664;23.372;2023-03-05T13:49:34;19.90;;;13.23;;
6135;SDS011;24008;42.664;23.372;2023-03-05T13:52:01;22.57;;;14.27;;
6135;SDS011;24008;42.664;23.372;2023-03-05T13:54:28;22.77;;;14.23;;
6135;SDS011;24008;42.664;23.372;2023-03-05T13:56:56;20.47;;;13.20;;
6135;SDS011;24008;42.664;23.372;2023-03-05T13:59:25;21.57;;;12.70;;
6135;SDS011;24008;42.664;23.372;2023-03-05T14:01:54;19.10;;;12.63;;
6135;SDS011;24008;42.664;23.372;2023-03-05T14:04:40;22.83;;;12.90;;
6135;SDS011;24008;42.664;23.372;2023-03-05T14:07:19;22.00;;;13.03;;
6135;SDS011;24008;42.664;23.372;2023-03-05T14:09:54;22.77;;;13.77;;
6135;SDS011;24008;42.664;23.372;2023-03-05T14:12:23;27.87;;;16.13;;
6135;SDS011;24008;42.664;23.372;2023-03-05T14:14:56;21.23;;;14.23;;
6135;SDS011;24008;42.664;23.372;2023-03-05T14:17:34;22.73;;;14.73;;
6135;SDS011;24008;42.664;23.372;2023-03-05T14:20:08;24.70;;;14.63;;
6135;SDS011;24008;42.664;23.372;2023-03-05T14:22:46;23.53;;;14.93;;
6135;SDS011;24008;42.664;23.372;2023-03-05T14:25:27;22.03;;;14.43;;
6135;SDS011;24008;42.664;23.372;2023-03-05T14:27:57;21.33;;;14.10;;
6135;SDS011;24008;42.664;23.372;2023-03-05T14:30:26;23.30;;;14.83;;
6135;SDS011;24008;42.664;23.372;2023-03-05T14:32:55;27.03;;;16.47;;
6135;SDS011;24008;42.664;23.372;2023-03-05T14:35:24;26.30;;;15.40;;
6135;SDS011;24008;42.664;23.372;2023-03-05T14:37:53;28.07;;;16.07;;
6135;SDS011;24008;42.664;23.372;2023-03-05T14:40:22;27.57;;;16.40;;
6135;SDS011;24008;42.664;23.372;2023-03-05T14:42:54;24.27;;;15.30;;
6135;SDS011;24008;42.664;23.372;2023-03-05T14:45:22;24.83;;;14.27;;
6135;SDS011;24008;42.664;23.372;2023-03-05T14:47:52;25.83;;;15.57;;
6135;SDS011;24008;42.664;23.372;2023-03-05T14:50:21;25.87;;;15.43;;